Danville, Indiana
Current Conditions -  °F | °C
As of 7:53 AM on Saturday 25 Oct 2014 (Local Time) from KEYE Reporting Station
Overcast Overcast  
Wind Chill: 55°   Ceiling: 2300
Heat Index: 55°   Visibility: 10mi
Dew Point: 51°   Wind: 6mph
Humidity: 86%   Direction: 240°WSW
Pressure: 29.97"   Gusts: NA
Location:  39.76°N, 86.53°W
Report Text: KEYE 251153Z AUTO 24005KT 10SM OVC023 13/11 A2997 RMK AO2 SLP146 T01280106 10128 20100 53003
Loading
Personal Weather Stations






























Interactive Weather Map
Tropical Storm Tracking
New forecast layout! Learn more

10-Day Weather Forecast

Advertisements
Track Severe Weather on mobile